Flight Briefing for CPX797

Departure Arrival
Miami International Airport (KMIA)
Click to view FAA NOTAMS
Arturo Merino Benitez International Airport (SCEL)
Click to view FAA NOTAMS
Departure Time Arrival Time
N/A N/A
Aircraft Distance
B747-400BCF 3625nm
Departure METAR Arrival METAR
KMIA 232253Z 06013G21KT 10SM SCT033 BKN045 28/19 A3007 RMK AO2 SLP183 T02830194 SCEL 232300Z 16002KT CAVOK 15/M06 Q1018 NOSIG
Suggested Route
EONNS2 EONNS A509 URSUS UA301 UCA UG430 SIA UB510 COLBY UM795 ILTUR UM795 BOKAN UM795 LOBOT UM795 KUSKU UM795 PUPMI UM795 JCL UL302 TOY UV208 SIMOK SIMOK2C


View recent IFR Routes data
Notes



Charts and Procedures

Charts for KMIA
No chart available
Charts for SCEL
No chart available

Windy.com Weather Map